Time;durP1;ratioP1;P1;durP2;ratioP2;P2;SDS_P1;SDS_P2;PMS_P1;PMS_P2;Temp;Humidity;BMP_temperature;BMP_pressure;BME280_temperature;BME280_humidity;BME280_pressure;Samples;Min_cycle;Max_cycle;Signal;HPM_P1;HPM_P2
2022/04/24 00:02:00;;;;;;;10.60;7.72;;;9.90;99.90;;;;;;4916672;28;20048;-72
2022/04/24 00:04:26;;;;;;;10.15;7.65;;;9.90;99.90;;;;;;4945746;28;20039;-73
2022/04/24 00:06:53;;;;;;;12.63;7.65;;;9.80;99.90;;;;;;4947553;28;20062;-73
2022/04/24 00:09:22;;;;;;;11.10;7.75;;;9.80;99.90;;;;;;4931653;28;20047;-73
2022/04/24 00:11:49;;;;;;;12.48;8.18;;;9.70;99.90;;;;;;4931050;29;20047;-72
2022/04/24 00:14:17;;;;;;;13.43;8.10;;;9.70;99.90;;;;;;4948519;28;20047;-72
2022/04/24 00:16:44;;;;;;;11.45;7.95;;;9.70;99.90;;;;;;4945984;28;20056;-72
2022/04/24 00:19:10;;;;;;;11.05;8.02;;;9.60;99.90;;;;;;4930342;29;20078;-72
2022/04/24 00:21:35;;;;;;;14.07;8.57;;;9.60;99.90;;;;;;4948208;28;20105;-72
2022/04/24 00:24:02;;;;;;;11.48;7.93;;;9.50;99.90;;;;;;4948142;28;20528;-73
2022/04/24 00:26:29;;;;;;;11.70;8.43;;;9.50;99.90;;;;;;4947317;28;20531;-73
2022/04/24 00:28:55;;;;;;;11.85;8.15;;;9.50;99.90;;;;;;4948354;28;20422;-71
2022/04/24 00:31:21;;;;;;;10.07;7.88;;;9.40;99.90;;;;;;4931421;29;20047;-72
2022/04/24 00:33:47;;;;;;;9.50;7.80;;;9.30;99.90;;;;;;4929758;29;20066;-73
2022/04/24 00:36:13;;;;;;;10.57;7.97;;;9.30;99.90;;;;;;4948084;28;20457;-72
2022/04/24 00:38:39;;;;;;;12.93;8.52;;;9.30;99.90;;;;;;4947361;28;20584;-72
2022/04/24 00:41:05;;;;;;;12.48;8.40;;;9.20;99.90;;;;;;4913912;29;20641;-73
2022/04/24 00:43:31;;;;;;;12.43;8.10;;;9.20;99.90;;;;;;4948331;28;20054;-72
2022/04/24 00:46:18;;;;;;;10.25;8.25;;;9.20;99.90;;;;;;4948404;28;20144;-71
2022/04/24 00:48:44;;;;;;;12.10;8.15;;;9.10;99.90;;;;;;4948104;29;20051;-72
2022/04/24 00:51:11;;;;;;;12.18;8.45;;;9.10;99.90;;;;;;4949378;28;20571;-71
2022/04/24 00:53:38;;;;;;;12.32;8.82;;;9.00;99.90;;;;;;4934435;28;20089;-73
2022/04/24 00:56:05;;;;;;;11.80;8.77;;;9.00;99.90;;;;;;4932516;29;20066;-74
2022/04/24 00:58:32;;;;;;;12.88;9.57;;;8.90;99.90;;;;;;4919391;29;20047;-71
2022/04/24 01:01:00;;;;;;;13.07;8.85;;;8.80;99.90;;;;;;4950497;28;20058;-72
2022/04/24 01:03:26;;;;;;;13.68;9.13;;;8.80;99.90;;;;;;4933194;29;20055;-72
2022/04/24 01:05:54;;;;;;;12.75;9.32;;;8.80;99.90;;;;;;4935143;29;20055;-71
2022/04/24 01:08:20;;;;;;;14.20;8.70;;;8.70;99.90;;;;;;4949736;28;20541;-72
2022/04/24 01:10:46;;;;;;;11.55;8.65;;;8.70;99.90;;;;;;4917778;29;20053;-73
2022/04/24 01:13:12;;;;;;;13.85;9.18;;;8.70;99.90;;;;;;4925860;28;20066;-72
2022/04/24 01:15:38;;;;;;;12.05;8.68;;;8.70;99.90;;;;;;4951200;28;20400;-75
2022/04/24 01:18:05;;;;;;;14.48;8.88;;;8.70;99.90;;;;;;4932581;29;20047;-73
2022/04/24 01:20:31;;;;;;;11.73;9.10;;;8.70;99.90;;;;;;4946120;28;20497;-73
2022/04/24 01:22:57;;;;;;;16.38;9.52;;;8.60;99.90;;;;;;4933101;28;20051;-72
2022/04/24 01:25:23;;;;;;;13.07;8.98;;;8.60;99.90;;;;;;4933013;29;20049;-72
2022/04/24 01:27:49;;;;;;;11.73;8.32;;;8.60;99.90;;;;;;4932640;28;20055;-73
2022/04/24 01:30:15;;;;;;;12.57;8.80;;;8.60;99.90;;;;;;4949328;28;20087;-72
2022/04/24 01:32:41;;;;;;;12.43;9.15;;;8.50;99.90;;;;;;4949228;28;20047;-73
2022/04/24 01:35:13;;;;;;;14.30;9.68;;;8.50;99.90;;;;;;4934903;28;20043;-72
2022/04/24 01:37:43;;;;;;;14.35;9.02;;;8.50;99.90;;;;;;4922827;29;20047;-72
2022/04/24 01:40:09;;;;;;;13.82;9.27;;;8.40;99.90;;;;;;4936451;28;20154;-72
2022/04/24 01:42:35;;;;;;;13.60;9.05;;;8.40;99.90;;;;;;4933522;29;20047;-74
2022/04/24 01:45:01;;;;;;;14.05;9.43;;;8.40;99.90;;;;;;4935993;28;20523;-72
2022/04/24 01:47:26;;;;;;;15.05;9.90;;;8.30;99.90;;;;;;4946356;28;20043;-73
2022/04/24 01:49:52;;;;;;;12.13;9.18;;;8.30;99.90;;;;;;4954332;28;20055;-74
2022/04/24 01:52:18;;;;;;;14.00;9.52;;;8.20;99.90;;;;;;4948825;28;20145;-72
2022/04/24 01:54:44;;;;;;;14.98;9.63;;;8.20;99.90;;;;;;4947239;28;20047;-72
2022/04/24 01:57:10;;;;;;;12.55;9.02;;;8.10;99.90;;;;;;4932165;29;20066;-73
2022/04/24 01:59:36;;;;;;;14.90;9.68;;;8.10;99.90;;;;;;4949557;28;20050;-72
2022/04/24 02:02:02;;;;;;;14.95;10.23;;;8.10;99.90;;;;;;4916074;29;20043;-73
2022/04/24 02:04:28;;;;;;;13.25;9.65;;;8.10;99.90;;;;;;4933261;28;20047;-74
2022/04/24 02:06:54;;;;;;;15.57;10.00;;;8.10;99.90;;;;;;4931780;29;20747;-73
2022/04/24 02:09:20;;;;;;;14.02;9.65;;;8.10;99.90;;;;;;4931518;29;20548;-72
2022/04/24 02:11:46;;;;;;;14.93;9.45;;;8.10;99.90;;;;;;4949666;28;20476;-73
2022/04/24 02:14:11;;;;;;;13.90;9.30;;;8.10;99.90;;;;;;4949595;28;20587;-72
2022/04/24 02:16:37;;;;;;;14.48;9.68;;;8.10;99.90;;;;;;4948290;28;20491;-74
2022/04/24 02:19:03;;;;;;;15.40;9.43;;;8.10;99.90;;;;;;4932096;28;20473;-72
2022/04/24 02:21:29;;;;;;;16.27;9.35;;;8.00;99.90;;;;;;4916437;29;20137;-75
2022/04/24 02:23:56;;;;;;;15.90;9.75;;;8.00;99.90;;;;;;4948055;28;20511;-74
2022/04/24 02:26:22;;;;;;;13.25;9.43;;;8.00;99.90;;;;;;4947385;28;20047;-72
2022/04/24 02:28:48;;;;;;;15.43;9.65;;;8.00;99.90;;;;;;4947411;28;20564;-72
2022/04/24 02:31:14;;;;;;;12.98;9.35;;;8.00;99.90;;;;;;4948348;28;20061;-74
2022/04/24 02:33:39;;;;;;;14.40;9.50;;;7.90;99.90;;;;;;4915655;29;20043;-72
2022/04/24 02:36:06;;;;;;;14.68;9.82;;;7.90;99.90;;;;;;4945660;28;20047;-71
2022/04/24 02:38:32;;;;;;;15.75;9.60;;;7.90;99.90;;;;;;4931332;28;20142;-71
2022/04/24 02:40:58;;;;;;;12.52;8.90;;;7.90;99.90;;;;;;4930947;29;20698;-72
2022/04/24 02:43:24;;;;;;;14.07;9.30;;;7.90;99.90;;;;;;4916420;29;20051;-74
2022/04/24 02:45:50;;;;;;;15.07;9.88;;;7.90;99.90;;;;;;4915359;28;20086;-72
2022/04/24 02:48:16;;;;;;;16.10;9.57;;;7.90;99.90;;;;;;4932617;28;20051;-73
2022/04/24 02:50:42;;;;;;;13.18;9.35;;;7.80;99.90;;;;;;4946078;28;20047;-72
2022/04/24 02:53:09;;;;;;;14.52;9.38;;;7.80;99.90;;;;;;4914846;28;20413;-72
2022/04/24 02:55:35;;;;;;;13.90;9.40;;;7.80;99.90;;;;;;4946469;28;20122;-72
2022/04/24 02:58:01;;;;;;;13.35;9.07;;;7.80;99.90;;;;;;4947220;28;20047;-73
2022/04/24 03:00:39;;;;;;;14.13;9.25;;;7.80;99.90;;;;;;4925368;28;20051;-72
2022/04/24 03:03:09;;;;;;;14.07;9.05;;;7.80;99.90;;;;;;4930561;29;20504;-72
2022/04/24 03:05:35;;;;;;;15.18;9.35;;;7.70;99.90;;;;;;4929655;29;20315;-72
2022/04/24 03:08:02;;;;;;;13.18;9.45;;;7.70;99.90;;;;;;4932191;28;20271;-73
2022/04/24 03:10:29;;;;;;;12.68;9.20;;;7.70;99.90;;;;;;4913699;28;20050;-73
2022/04/24 03:12:56;;;;;;;13.75;9.05;;;7.60;99.90;;;;;;4946251;28;20476;-73
2022/04/24 03:15:22;;;;;;;13.27;9.02;;;7.60;99.90;;;;;;4931336;28;20110;-72
2022/04/24 03:17:49;;;;;;;15.23;9.38;;;7.60;99.90;;;;;;4930828;29;20069;-73
2022/04/24 03:20:16;;;;;;;14.40;9.43;;;7.60;99.90;;;;;;4946271;28;20095;-76
2022/04/24 03:22:42;;;;;;;15.57;8.98;;;7.60;99.90;;;;;;4949341;28;20043;-73
2022/04/24 03:25:12;;;;;;;14.40;8.65;;;7.60;99.90;;;;;;4947008;28;20460;-72
2022/04/24 03:27:39;;;;;;;13.10;8.45;;;7.50;99.90;;;;;;4946723;28;20050;-72
2022/04/24 03:30:07;;;;;;;15.05;9.40;;;7.50;99.90;;;;;;4930426;29;20074;-72
2022/04/24 03:32:33;;;;;;;15.70;9.15;;;7.50;99.90;;;;;;4929941;29;20047;-73
2022/04/24 03:35:01;;;;;;;14.15;8.48;;;7.50;99.90;;;;;;4914829;28;20047;-71
2022/04/24 03:37:27;;;;;;;15.05;8.77;;;7.50;99.90;;;;;;4915154;29;20095;-73
2022/04/24 03:39:53;;;;;;;13.68;9.10;;;7.50;99.90;;;;;;4930382;28;20067;-72
2022/04/24 03:42:20;;;;;;;15.20;9.10;;;7.50;99.90;;;;;;4930970;28;20055;-73
2022/04/24 03:44:47;;;;;;;14.57;8.70;;;7.50;99.90;;;;;;4930874;29;20110;-70
2022/04/24 03:47:14;;;;;;;13.15;8.38;;;7.40;99.90;;;;;;4945706;28;20114;-72
2022/04/24 03:49:41;;;;;;;13.80;9.00;;;7.40;99.90;;;;;;4946613;28;20039;-73
2022/04/24 03:52:08;;;;;;;13.60;8.48;;;7.40;99.90;;;;;;4946421;28;20043;-72
2022/04/24 03:54:34;;;;;;;13.38;9.05;;;7.40;99.90;;;;;;4947145;28;20055;-74
2022/04/24 03:57:00;;;;;;;12.65;8.65;;;7.40;99.90;;;;;;4930522;29;20055;-71
2022/04/24 03:59:27;;;;;;;13.32;8.52;;;7.40;99.90;;;;;;4930415;29;20047;-74
2022/04/24 04:01:53;;;;;;;12.30;8.43;;;7.30;99.90;;;;;;4930747;28;20134;-73
2022/04/24 04:04:19;;;;;;;13.55;8.18;;;7.30;99.90;;;;;;4915530;28;20047;-73
2022/04/24 04:06:45;;;;;;;14.98;7.95;;;7.30;99.90;;;;;;4945922;28;20047;-72
2022/04/24 04:09:11;;;;;;;14.77;8.55;;;7.30;99.90;;;;;;4945215;28;21638;-74
2022/04/24 04:11:38;;;;;;;12.82;8.50;;;7.30;99.90;;;;;;4914939;28;20047;-72
2022/04/24 04:14:04;;;;;;;13.00;8.95;;;7.30;99.90;;;;;;4930680;28;20433;-72
2022/04/24 04:16:30;;;;;;;13.65;8.52;;;7.30;99.90;;;;;;4931036;29;20086;-72
2022/04/24 04:18:56;;;;;;;12.95;8.38;;;7.30;99.90;;;;;;4934479;29;20047;-74
2022/04/24 04:21:22;;;;;;;13.35;8.40;;;7.30;99.90;;;;;;4950370;28;20062;-73
2022/04/24 04:23:48;;;;;;;12.13;8.25;;;7.20;99.90;;;;;;4932945;28;20043;-72
2022/04/24 04:26:17;;;;;;;12.15;7.85;;;7.30;99.90;;;;;;4948186;28;20047;-73
2022/04/24 04:28:47;;;;;;;14.85;8.52;;;7.30;99.90;;;;;;4933731;29;20448;-72
2022/04/24 04:31:14;;;;;;;11.75;8.20;;;7.40;99.90;;;;;;4950605;28;20063;-73
2022/04/24 04:33:41;;;;;;;12.98;8.88;;;7.30;99.90;;;;;;4918203;28;20047;-72
2022/04/24 04:36:07;;;;;;;14.07;9.07;;;7.30;99.90;;;;;;4934738;29;20047;-73
2022/04/24 04:38:33;;;;;;;13.73;8.80;;;7.30;99.90;;;;;;4933316;28;20059;-71
2022/04/24 04:40:58;;;;;;;14.50;8.93;;;7.30;99.90;;;;;;4919988;28;20488;-72
2022/04/24 04:43:28;;;;;;;14.75;8.90;;;7.30;99.90;;;;;;4933775;29;20058;-73
2022/04/24 04:45:55;;;;;;;16.13;9.43;;;7.40;99.90;;;;;;4933531;28;20058;-71
2022/04/24 04:48:21;;;;;;;16.52;9.25;;;7.40;99.90;;;;;;4949217;28;20106;-72
2022/04/24 04:50:47;;;;;;;15.32;9.02;;;7.50;99.90;;;;;;4932912;28;20043;-72
2022/04/24 04:53:13;;;;;;;15.88;9.48;;;7.60;99.90;;;;;;4946658;28;20108;-72
2022/04/24 04:55:39;;;;;;;14.15;9.82;;;7.60;99.90;;;;;;4939119;28;20047;-73
2022/04/24 04:58:05;;;;;;;18.60;9.68;;;7.70;99.90;;;;;;4933790;28;20050;-73
2022/04/24 05:00:31;;;;;;;16.48;9.55;;;7.70;99.90;;;;;;4933548;28;20043;-73
2022/04/24 05:02:57;;;;;;;15.63;9.73;;;7.70;99.90;;;;;;4933432;29;20069;-72
2022/04/24 05:05:23;;;;;;;16.25;10.00;;;7.80;99.90;;;;;;4933347;28;20185;-72
2022/04/24 05:07:49;;;;;;;17.10;9.95;;;7.80;99.90;;;;;;4933202;28;20457;-73
2022/04/24 05:10:15;;;;;;;16.52;10.27;;;7.90;99.90;;;;;;4934504;29;20043;-73
2022/04/24 05:12:41;;;;;;;16.80;10.27;;;7.90;99.90;;;;;;4944622;28;20421;-72
2022/04/24 05:15:09;;;;;;;15.32;9.68;;;8.00;99.90;;;;;;4927264;29;20043;-73
2022/04/24 05:17:36;;;;;;;16.20;10.18;;;8.00;99.90;;;;;;4927068;29;20040;-74
2022/04/24 05:20:04;;;;;;;17.77;10.75;;;8.10;99.90;;;;;;4931082;29;20499;-72
2022/04/24 05:22:30;;;;;;;19.30;10.57;;;8.10;99.90;;;;;;4933580;29;20062;-72
2022/04/24 05:24:56;;;;;;;17.85;10.68;;;8.10;99.90;;;;;;4932918;28;20043;-72
2022/04/24 05:27:22;;;;;;;16.70;10.45;;;8.20;99.90;;;;;;4947746;28;20087;-72
2022/04/24 05:29:48;;;;;;;18.63;10.63;;;8.20;99.90;;;;;;4942957;28;20496;-72
2022/04/24 05:32:14;;;;;;;17.45;10.13;;;8.20;99.90;;;;;;4941238;28;20078;-72
2022/04/24 05:34:40;;;;;;;16.25;10.35;;;8.20;99.90;;;;;;4949064;28;20407;-72
2022/04/24 05:37:06;;;;;;;15.88;10.07;;;8.30;99.90;;;;;;4941430;28;20065;-73
2022/04/24 05:39:33;;;;;;;18.67;10.20;;;8.40;99.90;;;;;;4949233;28;20052;-73
2022/04/24 05:41:59;;;;;;;21.55;10.38;;;8.50;99.90;;;;;;4942043;28;20051;-72
2022/04/24 05:44:25;;;;;;;16.92;10.35;;;8.40;99.90;;;;;;4948787;28;20054;-73
2022/04/24 05:46:52;;;;;;;19.33;10.43;;;8.40;99.90;;;;;;4941528;28;20125;-73
2022/04/24 05:49:18;;;;;;;16.40;9.75;;;8.40;99.90;;;;;;4922011;29;20044;-73
2022/04/24 05:51:44;;;;;;;13.80;9.15;;;8.40;99.90;;;;;;4902500;29;20051;-75
2022/04/24 05:54:11;;;;;;;17.13;9.43;;;8.30;99.90;;;;;;4930185;29;20047;-73
2022/04/24 05:56:38;;;;;;;18.15;9.63;;;8.40;99.90;;;;;;4932942;29;20703;-74
2022/04/24 05:59:05;;;;;;;16.20;8.55;;;8.50;99.90;;;;;;4939429;28;20067;-74
2022/04/24 06:01:31;;;;;;;16.40;9.07;;;8.50;99.90;;;;;;4942362;29;20050;-75
2022/04/24 06:03:57;;;;;;;14.63;9.00;;;8.50;99.90;;;;;;4932954;29;20053;-73
2022/04/24 06:06:23;;;;;;;13.48;8.50;;;8.60;99.90;;;;;;4917931;28;20039;-74
2022/04/24 06:08:49;;;;;;;14.73;8.40;;;8.70;99.90;;;;;;4948840;28;20052;-72
2022/04/24 06:11:15;;;;;;;13.85;8.23;;;8.70;99.90;;;;;;4939234;28;20055;-72
2022/04/24 06:13:41;;;;;;;15.88;7.95;;;8.80;99.90;;;;;;4923157;29;20051;-73
2022/04/24 06:16:07;;;;;;;13.75;7.47;;;8.90;99.90;;;;;;4942701;29;20043;-71
2022/04/24 06:18:33;;;;;;;11.45;7.25;;;9.00;99.90;;;;;;4925817;29;20167;-72
2022/04/24 06:20:58;;;;;;;13.05;6.80;;;9.20;99.90;;;;;;4927767;28;20669;-74
2022/04/24 06:23:27;;;;;;;12.07;6.32;;;9.20;99.90;;;;;;4931743;29;20058;-73
2022/04/24 06:25:52;;;;;;;7.82;5.50;;;9.30;99.90;;;;;;4923135;28;20110;-72
2022/04/24 06:28:18;;;;;;;8.60;5.68;;;9.40;99.90;;;;;;4943338;28;20047;-73
2022/04/24 06:30:45;;;;;;;8.32;5.45;;;9.50;99.90;;;;;;4946483;28;20146;-73
2022/04/24 06:33:11;;;;;;;9.88;5.07;;;9.50;99.90;;;;;;4940701;29;20155;-75
2022/04/24 06:35:38;;;;;;;8.30;5.03;;;9.60;99.90;;;;;;4944380;28;20082;-72
2022/04/24 06:38:05;;;;;;;10.07;5.18;;;9.70;99.90;;;;;;4931577;29;20446;-76
2022/04/24 06:40:31;;;;;;;7.97;4.38;;;9.80;99.90;;;;;;4931960;29;20052;-74
2022/04/24 06:43:05;;;;;;;9.55;4.88;;;9.80;99.90;;;;;;4935950;29;20130;-72
2022/04/24 06:45:40;;;;;;;6.95;4.32;;;10.00;99.90;;;;;;4950862;29;20051;-73
2022/04/24 06:48:11;;;;;;;8.90;4.32;;;9.90;99.90;;;;;;4947466;28;20491;-72
2022/04/24 06:50:41;;;;;;;7.50;4.40;;;9.90;99.90;;;;;;4932800;29;20043;-72
2022/04/24 06:53:08;;;;;;;10.13;4.10;;;9.90;99.90;;;;;;4932708;29;20051;-74
2022/04/24 06:55:40;;;;;;;7.55;4.38;;;10.00;99.90;;;;;;4932816;29;20075;-78
2022/04/24 06:58:07;;;;;;;6.53;3.95;;;10.20;99.90;;;;;;4932735;29;20508;-74
2022/04/24 07:00:38;;;;;;;6.13;3.90;;;10.30;99.90;;;;;;4947783;28;20055;-74
2022/04/24 07:03:16;;;;;;;6.78;3.85;;;10.40;99.90;;;;;;4931517;29;20054;-76
2022/04/24 07:05:42;;;;;;;7.75;4.05;;;10.50;99.90;;;;;;4932615;28;20098;-72
2022/04/24 07:08:09;;;;;;;7.97;4.25;;;10.40;99.90;;;;;;4947586;28;20051;-73
2022/04/24 07:10:35;;;;;;;6.70;4.50;;;10.50;99.90;;;;;;4925151;29;20086;-74
2022/04/24 07:13:01;;;;;;;7.65;4.03;;;10.40;99.90;;;;;;4921220;29;20078;-73
2022/04/24 07:15:31;;;;;;;7.90;4.15;;;10.60;99.90;;;;;;4952427;29;20047;-72
2022/04/24 07:17:58;;;;;;;8.40;4.35;;;10.70;99.90;;;;;;4922814;28;20047;-73
2022/04/24 07:20:24;;;;;;;5.95;4.47;;;10.80;99.90;;;;;;4920856;29;20070;-75
2022/04/24 07:22:53;;;;;;;9.35;4.50;;;11.00;99.90;;;;;;4926233;28;20054;-72
2022/04/24 07:25:22;;;;;;;7.93;4.40;;;11.20;99.90;;;;;;4915947;28;20089;-74
2022/04/24 07:27:48;;;;;;;5.63;3.92;;;11.40;99.90;;;;;;4957653;28;20142;-73
2022/04/24 07:30:15;;;;;;;6.53;4.00;;;11.40;99.90;;;;;;4950655;28;20146;-73
2022/04/24 07:32:47;;;;;;;9.70;3.95;;;11.50;99.90;;;;;;4947426;28;20074;-74
2022/04/24 07:35:18;;;;;;;6.72;3.97;;;11.40;99.90;;;;;;4946412;28;20059;-72
2022/04/24 07:37:44;;;;;;;8.60;4.35;;;11.50;99.90;;;;;;4949309;28;20051;-73
2022/04/24 07:40:16;;;;;;;6.40;3.97;;;11.60;99.90;;;;;;4929845;28;20493;-72
2022/04/24 07:42:54;;;;;;;7.75;3.97;;;11.80;99.90;;;;;;4898825;29;20123;-73
2022/04/24 07:45:31;;;;;;;6.22;4.03;;;12.00;99.90;;;;;;4912961;29;20067;-73
2022/04/24 07:47:58;;;;;;;5.38;3.78;;;12.10;99.90;;;;;;4930235;29;20131;-73
2022/04/24 07:50:28;;;;;;;9.85;3.78;;;12.30;99.90;;;;;;4928169;29;20047;-73
2022/04/24 07:52:54;;;;;;;7.55;4.32;;;12.40;99.90;;;;;;4919203;29;20111;-72
2022/04/24 07:55:23;;;;;;;6.22;4.43;;;12.50;99.90;;;;;;4915283;29;20378;-72
2022/04/24 07:57:52;;;;;;;9.77;4.57;;;12.60;99.90;;;;;;4932648;29;20090;-73
2022/04/24 08:00:21;;;;;;;7.88;4.40;;;12.70;99.90;;;;;;4925374;29;20051;-72
2022/04/24 08:02:48;;;;;;;6.88;4.35;;;12.70;99.90;;;;;;4908497;29;20047;-74
2022/04/24 08:05:24;;;;;;;7.65;4.28;;;12.80;99.90;;;;;;4920516;29;20043;-72
2022/04/24 08:07:51;;;;;;;5.95;4.18;;;12.90;99.90;;;;;;4921688;29;20509;-73
2022/04/24 08:10:18;;;;;;;8.57;4.20;;;12.90;99.90;;;;;;4938496;29;20073;-72
2022/04/24 08:12:45;;;;;;;7.93;4.25;;;12.90;99.90;;;;;;4921026;29;20051;-74
2022/04/24 08:15:12;;;;;;;7.57;4.40;;;12.90;99.90;;;;;;4923156;29;20052;-72
2022/04/24 08:17:38;;;;;;;7.93;3.92;;;13.00;99.90;;;;;;4924196;29;20048;-73
2022/04/24 08:20:07;;;;;;;7.55;4.38;;;13.10;99.90;;;;;;4920580;29;20048;-74
2022/04/24 08:22:48;;;;;;;7.72;4.10;;;13.30;99.90;;;;;;4937612;29;20506;-73
2022/04/24 08:25:20;;;;;;;6.82;4.25;;;13.40;99.90;;;;;;4903553;29;20079;-71
2022/04/24 08:27:48;;;;;;;7.28;3.95;;;13.40;99.90;;;;;;4936278;29;20119;-73
2022/04/24 08:30:15;;;;;;;5.82;3.60;;;13.40;99.90;;;;;;4938083;29;20051;-72
2022/04/24 08:32:42;;;;;;;7.45;4.00;;;13.40;99.90;;;;;;4930230;29;20126;-72
2022/04/24 08:35:11;;;;;;;7.00;3.40;;;13.50;99.90;;;;;;4936645;29;20055;-73
2022/04/24 08:37:38;;;;;;;7.20;4.07;;;13.60;99.90;;;;;;4944400;29;20044;-72
2022/04/24 08:40:06;;;;;;;6.70;4.00;;;13.60;99.90;;;;;;4949714;28;20649;-72
2022/04/24 08:42:33;;;;;;;7.18;4.20;;;13.60;99.90;;;;;;4927384;29;20055;-73
2022/04/24 08:45:03;;;;;;;6.10;4.05;;;13.80;99.90;;;;;;4941253;29;20045;-72
2022/04/24 08:47:29;;;;;;;9.10;4.00;;;13.80;99.90;;;;;;4943955;28;20167;-75
2022/04/24 08:50:02;;;;;;;8.30;4.32;;;13.80;99.90;;;;;;4911802;29;20063;-73
2022/04/24 08:52:30;;;;;;;8.18;3.78;;;13.90;99.90;;;;;;4948902;28;20111;-76
2022/04/24 08:54:58;;;;;;;6.93;3.30;;;13.90;99.90;;;;;;4924488;29;20048;-75
2022/04/24 08:57:30;;;;;;;8.35;3.70;;;14.10;99.90;;;;;;4921373;29;20058;-72
2022/04/24 09:00:04;;;;;;;7.40;3.97;;;14.10;99.90;;;;;;4931629;29;20048;-75
2022/04/24 09:02:30;;;;;;;7.22;3.60;;;14.20;99.90;;;;;;4916699;29;20492;-84
2022/04/24 09:04:57;;;;;;;5.88;3.55;;;14.50;99.90;;;;;;4919184;29;20079;-75
2022/04/24 09:07:31;;;;;;;10.15;4.10;;;14.60;99.90;;;;;;4913145;29;20094;-84
2022/04/24 09:09:57;;;;;;;6.82;4.10;;;14.70;99.90;;;;;;4904263;29;20409;-74
2022/04/24 09:12:26;;;;;;;5.68;3.58;;;14.70;99.90;;;;;;4944123;29;20135;-75
2022/04/24 09:14:54;;;;;;;8.38;3.60;;;14.70;98.50;;;;;;4942034;29;20497;-76
2022/04/24 09:17:26;;;;;;;9.40;3.75;;;14.80;91.90;;;;;;4921750;29;20126;-73
2022/04/24 09:19:53;;;;;;;8.23;3.60;;;15.00;95.70;;;;;;4930508;29;20134;-72
2022/04/24 09:22:19;;;;;;;12.60;3.22;;;14.90;90.30;;;;;;4926938;29;20098;-72
2022/04/24 09:24:48;;;;;;;4.43;3.15;;;15.10;92.50;;;;;;4940146;28;20130;-70
2022/04/24 09:27:27;;;;;;;5.68;3.78;;;15.20;86.00;;;;;;4940622;29;20057;-71
2022/04/24 09:29:59;;;;;;;6.85;4.03;;;15.20;78.50;;;;;;4948637;28;20480;-73
2022/04/24 09:32:30;;;;;;;7.15;3.30;;;15.20;80.90;;;;;;4911345;29;20561;-72
2022/04/24 09:34:57;;;;;;;5.55;3.40;;;15.20;78.90;;;;;;4933222;29;20051;-71
2022/04/24 09:37:24;;;;;;;5.38;3.33;;;15.30;78.80;;;;;;4926578;29;20056;-72
2022/04/24 09:39:52;;;;;;;4.53;3.20;;;15.40;74.90;;;;;;4947732;28;20094;-71
2022/04/24 09:42:20;;;;;;;5.22;3.88;;;15.40;73.10;;;;;;4933754;29;20552;-71
2022/04/24 09:44:53;;;;;;;6.68;3.70;;;15.30;75.40;;;;;;4935335;29;20051;-69
2022/04/24 09:47:24;;;;;;;4.93;3.58;;;15.30;77.10;;;;;;4947188;28;20055;-70
2022/04/24 09:49:52;;;;;;;4.23;3.27;;;15.40;76.60;;;;;;4932279;28;20043;-70
2022/04/24 09:52:22;;;;;;;8.20;3.70;;;15.50;75.00;;;;;;4917257;29;20073;-72
2022/04/24 09:54:53;;;;;;;8.45;3.65;;;15.60;76.50;;;;;;4925283;28;20098;-72
2022/04/24 09:57:22;;;;;;;4.03;3.10;;;15.60;76.60;;;;;;4927539;28;20047;-71
2022/04/24 09:59:50;;;;;;;6.47;3.20;;;15.70;75.50;;;;;;4932564;28;20058;-71
2022/04/24 10:02:18;;;;;;;5.35;3.58;;;15.80;76.20;;;;;;4913220;28;20055;-70
2022/04/24 10:04:45;;;;;;;5.65;3.30;;;16.00;75.90;;;;;;4947851;28;20051;-72
2022/04/24 10:07:16;;;;;;;5.38;3.35;;;16.10;75.50;;;;;;4948187;28;20644;-70
2022/04/24 10:09:45;;;;;;;4.82;3.22;;;16.40;74.70;;;;;;4932003;28;20062;-70
2022/04/24 10:12:14;;;;;;;5.88;3.58;;;16.30;74.10;;;;;;4925051;29;20518;-69
2022/04/24 10:14:57;;;;;;;5.78;3.20;;;16.20;73.50;;;;;;4930655;28;20067;-71
2022/04/24 10:17:48;;;;;;;4.68;2.80;;;16.20;70.50;;;;;;4948756;28;20062;-70
2022/04/24 10:20:51;;;;;;;4.33;2.67;;;16.40;70.90;;;;;;4928824;29;20054;-69
2022/04/24 10:23:32;;;;;;;6.22;3.05;;;16.20;67.70;;;;;;4920993;29;20051;-69
2022/04/24 10:25:58;;;;;;;6.47;3.00;;;16.20;68.00;;;;;;4941118;28;20572;-70
2022/04/24 10:28:36;;;;;;;3.25;2.75;;;16.30;70.00;;;;;;4931641;28;20162;-71
2022/04/24 10:31:03;;;;;;;4.15;2.28;;;16.20;68.30;;;;;;4935787;28;20051;-69
2022/04/24 10:33:32;;;;;;;5.05;2.63;;;16.40;68.10;;;;;;4939719;29;20433;-69
2022/04/24 10:36:15;;;;;;;3.97;2.17;;;16.50;67.20;;;;;;5132786;27;20395;-68
2022/04/24 10:38:59;;;;;;;4.35;2.22;;;16.50;64.90;;;;;;5088105;28;20064;-69
2022/04/24 10:41:29;;;;;;;4.20;2.90;;;16.60;64.80;;;;;;5110276;28;20048;-71
2022/04/24 10:44:12;;;;;;;5.13;2.30;;;16.60;64.00;;;;;;5115285;27;20059;-67
2022/04/24 10:46:42;;;;;;;4.78;2.65;;;16.70;65.50;;;;;;5088489;28;20293;-69
2022/04/24 10:49:17;;;;;;;5.25;2.83;;;16.70;66.10;;;;;;5103647;28;20051;-69
2022/04/24 10:51:46;;;;;;;5.47;3.10;;;16.90;66.40;;;;;;5111862;28;20513;-69
2022/04/24 10:54:14;;;;;;;5.18;3.00;;;17.20;67.30;;;;;;5113472;28;20104;-71
2022/04/24 10:56:51;;;;;;;6.18;3.38;;;17.40;66.40;;;;;;5115919;28;20039;-69
2022/04/24 10:59:20;;;;;;;5.90;3.15;;;17.50;66.50;;;;;;5077745;28;20067;-68
2022/04/24 11:01:50;;;;;;;5.60;3.00;;;17.20;64.90;;;;;;5119249;28;20051;-69
2022/04/24 11:04:17;;;;;;;6.63;3.08;;;17.30;64.60;;;;;;5112578;28;20496;-69
2022/04/24 11:07:02;;;;;;;7.13;3.42;;;17.40;65.10;;;;;;5109003;28;20047;-69
2022/04/24 11:09:35;;;;;;;4.47;3.10;;;17.20;62.90;;;;;;5111613;28;20054;-68
2022/04/24 11:12:08;;;;;;;5.75;3.35;;;16.90;64.00;;;;;;5095159;28;20055;-71
2022/04/24 11:14:35;;;;;;;9.27;3.30;;;16.50;65.10;;;;;;5114114;28;20070;-71
2022/04/24 11:17:06;;;;;;;5.82;3.17;;;16.40;65.30;;;;;;5113038;28;20048;-72
2022/04/24 11:19:36;;;;;;;5.25;3.20;;;16.50;65.20;;;;;;5114620;28;20545;-71
2022/04/24 11:22:07;;;;;;;4.60;2.90;;;16.70;65.20;;;;;;5108944;27;20051;-71
2022/04/24 11:24:36;;;;;;;6.63;3.42;;;16.90;64.50;;;;;;5092514;28;20043;-70
2022/04/24 11:27:09;;;;;;;4.55;3.10;;;17.00;63.50;;;;;;5116116;28;21807;-69
2022/04/24 11:29:35;;;;;;;5.38;3.30;;;17.30;63.10;;;;;;5098364;28;20048;-69
2022/04/24 11:32:02;;;;;;;5.45;3.08;;;17.50;64.20;;;;;;5112038;28;20502;-69
2022/04/24 11:34:29;;;;;;;4.38;3.13;;;17.70;63.30;;;;;;5114290;28;20522;-68
2022/04/24 11:36:59;;;;;;;6.38;3.72;;;17.60;62.80;;;;;;5112150;28;20043;-68
2022/04/24 11:39:26;;;;;;;6.90;3.17;;;17.80;62.70;;;;;;5100439;28;20075;-69
2022/04/24 11:41:53;;;;;;;5.95;3.55;;;17.80;62.10;;;;;;5095738;28;20044;-68
2022/04/24 11:52:37;;;;;;;5.78;3.55;;;17.70;62.20;;;;;;5094667;28;20048;-68
2022/04/24 11:55:08;;;;;;;5.28;3.30;;;17.90;62.70;;;;;;5089110;28;20055;-71
2022/04/24 11:57:35;;;;;;;5.63;3.67;;;18.10;61.50;;;;;;5091024;28;20043;-71
2022/04/24 12:00:03;;;;;;;6.03;3.80;;;18.00;61.70;;;;;;5088248;28;20041;-70
2022/04/24 12:02:29;;;;;;;5.55;3.72;;;18.30;62.80;;;;;;5085384;28;20071;-70
2022/04/24 12:04:59;;;;;;;4.65;3.60;;;18.30;62.50;;;;;;5117067;27;20048;-69
2022/04/24 12:07:36;;;;;;;4.72;3.53;;;18.40;62.60;;;;;;5092634;28;20513;-71
2022/04/24 12:10:06;;;;;;;4.65;3.65;;;18.40;60.70;;;;;;5101333;28;20051;-71
2022/04/24 12:12:47;;;;;;;6.75;3.42;;;18.70;62.30;;;;;;5093030;28;20040;-73
2022/04/24 12:15:14;;;;;;;6.72;3.45;;;18.70;60.00;;;;;;5097692;28;20051;-73
2022/04/24 12:17:50;;;;;;;6.53;3.72;;;18.80;61.40;;;;;;5083908;28;20396;-73
2022/04/24 12:20:17;;;;;;;5.88;3.80;;;19.20;60.20;;;;;;5080017;28;20093;-71
2022/04/24 12:22:43;;;;;;;4.60;3.25;;;19.30;60.50;;;;;;5099936;28;20058;-72
2022/04/24 12:25:18;;;;;;;6.88;3.38;;;19.50;61.80;;;;;;5099068;28;20040;-72
2022/04/24 12:27:57;;;;;;;4.65;3.47;;;19.70;59.50;;;;;;5079179;28;20044;-72
2022/04/24 12:30:32;;;;;;;5.88;3.88;;;19.80;57.50;;;;;;5118892;27;20047;-70
2022/04/24 12:33:07;;;;;;;4.72;3.60;;;19.70;58.90;;;;;;5098501;28;20055;-71
2022/04/24 12:35:34;;;;;;;7.03;3.70;;;19.50;57.50;;;;;;5099271;28;20130;-71
2022/04/24 12:38:22;;;;;;;6.00;3.58;;;19.30;59.60;;;;;;5113268;27;20043;-69
2022/04/24 12:40:59;;;;;;;6.30;3.50;;;20.20;58.60;;;;;;5076843;28;20509;-69
2022/04/24 12:43:30;;;;;;;5.63;3.60;;;20.50;58.10;;;;;;5101039;28;20067;-69
2022/04/24 12:45:57;;;;;;;4.30;3.35;;;20.80;57.50;;;;;;5080153;28;20451;-70
2022/04/24 12:48:24;;;;;;;4.65;3.80;;;20.60;58.00;;;;;;5092420;28;20059;-70
2022/04/24 12:50:54;;;;;;;4.80;3.35;;;20.70;57.00;;;;;;5089675;28;20127;-68
2022/04/24 12:53:25;;;;;;;4.63;3.40;;;20.70;56.00;;;;;;5095958;28;20104;-70
2022/04/24 12:55:51;;;;;;;3.50;3.17;;;20.40;56.60;;;;;;5099125;28;20055;-73
2022/04/24 12:58:21;;;;;;;5.90;3.50;;;20.40;56.30;;;;;;5077437;28;20055;-71
2022/04/24 13:00:47;;;;;;;5.13;3.78;;;21.00;55.80;;;;;;5100051;28;20488;-71